Airfield :
LOGIN :

Register | Disclaimer

   EN    FR    IT 

 










Legend :    VFR   Marginal VFR   IFR   Intensive IFR   Very Intensive IFR
Visi :
Ceiling :
>= 8 km
>= 3000ft
5 to 8 km
1000 to 3000 ft
1500m to 5 km
500 to 1000 ft
800 to 1500m
200 to 500 ft
< 800m
< 200 ft
Symbols :   Thunderstorms  Fog  Heavy snow  Heavy precipitations  Wind > 20 kt
SIGMETs :     Misc.  Thunderstorms  Icing  Turbulence  Mountain Waves  Volcanic Ashes







- Airport Elevation : 527 ft
- IATA code : DBV


LDDU - Dubrovnik

CURRENT METAR :
  • 160530Z 03016KT 350V070 CAVOK 07/M06 Q1028 NOSIG

EXPIRED METARs :
  • 160500Z 03019KT 350V050 CAVOK 07/M06 Q1028 NOSIG
  • 160430Z 03020KT 350V060 CAVOK 07/M06 Q1027 NOSIG
  • 160400Z 03020KT 350V060 CAVOK 07/M06 Q1027 NOSIG
  • 160330Z 02021KT 350V060 CAVOK 07/M06 Q1027 NOSIG
  • 160300Z 03020KT 360V060 CAVOK 07/M06 Q1027 NOSIG

TAF TAF LDDU
Valid from the 16 at 06:00 until the 17 at 06:00 UTC


160525Z 1606/1706 03020KT CAVOK TX12/1612Z TN04/1705Z
BECMG 1609/1611 22008KT
BECMG 1613/1615 28009KT
BECMG 1616/1618 08006KT
No reported NOTAMs for that airfield.



MET'MAP, your aeronautical weather chart ! - Copyright ORBIFLY December 2007 - Disclaimer

ORBIFLY MET'MAP TEAM :

Programming & Development : Alexandra Zaïnal
Concept & Development : Baudouin d'Aumeries
Co-Development & Prog : Marc-Olivier Méhu
Technical & hardware support : Manuel Goepfert

Contact : metmap@orbifly.com




SOURCES & CREDITS :

   NOAA